Bigcreek, South Carolina
Current Conditions -  °F | °C
As of 12:35 AM on Thursday 27 Nov 2014 (Local Time) from KEOE Reporting Station
Scattered Clouds Scattered Clouds  
Wind Chill: 36°   Ceiling: Unl
Heat Index: 39°   Visibility: 10mi
Dew Point: 32°   Wind: 5mph
Humidity: 75%   Direction: 220°SW
Pressure: 30.08"   Gusts: NA
Location:  34.2477°N, 81.8399°W
Report Text: KEOE 270535Z AUTO 22004KT 10SM SCT090 SCT110 04/00 A3008 RMK AO2 P0003
Loading
Personal Weather Stations






























Interactive Weather Map New forecast layout! Learn more

10-Day Weather Forecast

Advertisements
Track Severe Weather on mobile